createdAt,value
2023-08-29T00:01:45.801Z,100377.13
2023-08-29T00:06:49.320Z,100368.34
2023-08-29T00:11:53.127Z,100353.22
2023-08-29T00:16:58.471Z,100330.81
2023-08-29T00:22:02.060Z,100333.19
2023-08-29T00:27:06.046Z,100324.41
2023-08-29T00:32:14.181Z,100330.78
2023-08-29T00:37:19.607Z,100342.22
2023-08-29T00:42:23.264Z,100368.03
2023-08-29T00:47:28.808Z,100365.72
2023-08-29T00:52:32.757Z,100376.41
2023-08-29T00:57:36.393Z,100392.00
2023-08-29T01:02:41.446Z,100390.84
2023-08-29T01:07:47.927Z,100389.53
2023-08-29T01:13:00.615Z,100391.69
2023-08-29T01:18:07.281Z,100390.84
2023-08-29T01:23:29.574Z,100389.47
2023-08-29T01:28:34.803Z,100388.66
2023-08-29T01:33:40.587Z,100388.66
2023-08-29T01:38:44.197Z,100392.00
2023-08-29T01:43:50.414Z,100387.34
2023-08-29T01:48:54.524Z,100388.03
2023-08-29T01:53:58.920Z,100391.56
2023-08-29T01:59:04.134Z,100392.53
2023-08-29T02:04:07.933Z,100394.56
2023-08-29T02:09:12.161Z,100399.25
2023-08-29T02:14:17.408Z,100399.72
2023-08-29T02:19:21.404Z,100398.22
2023-08-29T02:24:25.153Z,100399.91
2023-08-29T02:29:30.189Z,100395.56
2023-08-29T02:34:33.877Z,100389.84
2023-08-29T02:39:37.471Z,100390.53
2023-08-29T02:44:42.953Z,100384.81
2023-08-29T02:49:46.632Z,100387.47
2023-08-29T02:54:50.242Z,100383.31
2023-08-29T02:59:55.388Z,100379.13
2023-08-29T03:04:59.326Z,100371.56
2023-08-29T03:10:04.057Z,100372.75
2023-08-29T03:15:14.481Z,100378.97
2023-08-29T03:20:18.509Z,100380.09
2023-08-29T03:25:24.070Z,100372.09
2023-08-29T03:30:29.054Z,100366.06
2023-08-29T03:35:32.684Z,100365.38
2023-08-29T03:40:36.524Z,100347.81
2023-08-29T03:45:41.673Z,100339.28
2023-08-29T03:50:46.346Z,100332.91
2023-08-29T03:55:49.931Z,100332.41
2023-08-29T04:00:56.274Z,100318.16
2023-08-29T04:06:00.157Z,100317.50
2023-08-29T04:11:05.119Z,100314.97
2023-08-29T04:16:10.128Z,100303.69
2023-08-29T04:21:13.688Z,100314.50
2023-08-29T04:26:17.275Z,100303.69
2023-08-29T04:31:22.549Z,100305.78
2023-08-29T04:36:26.713Z,100295.00
2023-08-29T04:41:30.404Z,100303.59
2023-08-29T04:46:35.511Z,100300.06
2023-08-29T04:51:39.225Z,100303.75
2023-08-29T04:56:42.797Z,100312.09
2023-08-29T05:01:50.510Z,100308.78
2023-08-29T05:06:54.719Z,100304.38
2023-08-29T05:11:58.267Z,100299.63
2023-08-29T05:17:03.494Z,100300.00
2023-08-29T05:22:07.679Z,100317.28
2023-08-29T05:27:11.308Z,100329.09
2023-08-29T05:32:16.313Z,100336.09
2023-08-29T05:37:19.927Z,100333.66
2023-08-29T05:42:23.722Z,100324.38
2023-08-29T05:47:28.977Z,100329.81
2023-08-29T05:52:32.670Z,100335.41
2023-08-29T05:57:36.393Z,100325.19
2023-08-29T06:02:41.543Z,100313.66
2023-08-29T06:07:45.356Z,100310.88
2023-08-29T06:12:49.219Z,100301.34
2023-08-29T06:17:54.418Z,100311.56
2023-08-29T06:22:59.625Z,100307.41
2023-08-29T06:28:03.163Z,100319.13
2023-08-29T06:33:08.671Z,100318.47
2023-08-29T06:38:12.391Z,100314.16
2023-08-29T06:43:15.888Z,100315.84
2023-08-29T06:48:20.948Z,100319.75
2023-08-29T06:53:26.528Z,100324.66
2023-08-29T06:58:30.144Z,100328.22
2023-08-29T07:03:35.302Z,100321.28
2023-08-29T07:08:41.130Z,100325.41
2023-08-29T07:13:44.936Z,100323.22
2023-08-29T07:18:50.176Z,100316.91
2023-08-29T07:23:55.444Z,100329.78
2023-08-29T07:28:59.100Z,100327.84
2023-08-29T07:34:04.389Z,100336.59
2023-08-29T07:39:08.106Z,100332.06
2023-08-29T07:44:11.788Z,100354.09
2023-08-29T07:49:21.454Z,100346.09
2023-08-29T07:54:25.174Z,100341.28
2023-08-29T07:59:28.795Z,100356.06
2023-08-29T08:04:33.853Z,100356.56
2023-08-29T08:09:37.409Z,100357.28
2023-08-29T08:14:41.088Z,100353.53
2023-08-29T08:19:46.213Z,100348.34
2023-08-29T08:24:50.020Z,100361.19
2023-08-29T08:29:53.733Z,100367.91
2023-08-29T08:34:58.907Z,100356.47
2023-08-29T08:40:10.316Z,100364.06
2023-08-29T08:45:14.033Z,100365.59
2023-08-29T08:50:19.487Z,100361.31
2023-08-29T08:55:24.052Z,100363.91
2023-08-29T09:00:27.796Z,100367.09
2023-08-29T09:05:32.803Z,100351.59
2023-08-29T09:10:40.151Z,100363.81
2023-08-29T09:15:43.995Z,100343.88
2023-08-29T09:20:52.955Z,100354.69
2023-08-29T09:25:57.318Z,100365.31
2023-08-29T09:31:07.353Z,100365.19
2023-08-29T09:36:12.992Z,100363.84
2023-08-29T09:41:16.921Z,100354.41
2023-08-29T09:46:25.205Z,100363.63
2023-08-29T09:51:31.029Z,100367.22
2023-08-29T09:56:35.624Z,100364.69
2023-08-29T10:01:40.917Z,100354.81
2023-08-29T10:06:46.920Z,100344.94
2023-08-29T10:11:54.441Z,100340.06
2023-08-29T10:17:01.079Z,100339.31
2023-08-29T10:22:08.389Z,100327.56
2023-08-29T10:27:12.446Z,100338.47
2023-08-29T10:32:16.879Z,100338.91
2023-08-29T10:37:23.306Z,100326.97
2023-08-29T10:42:26.929Z,100331.94
2023-08-29T10:47:32.458Z,100319.91
2023-08-29T10:52:38.717Z,100318.97
2023-08-29T10:57:43.274Z,100322.22
2023-08-29T11:02:48.874Z,100309.38
2023-08-29T11:07:54.015Z,100297.81
2023-08-29T11:13:07.409Z,100297.41
2023-08-29T11:18:20.907Z,100302.97
2023-08-29T11:23:26.139Z,100284.09
2023-08-29T11:28:29.814Z,100275.25
2023-08-29T11:33:35.016Z,100280.34
2023-08-29T11:38:41.564Z,100282.44
2023-08-29T11:44:30.946Z,100280.78
2023-08-29T11:49:13.894Z,100275.97
2023-08-29T11:54:42.502Z,100268.06
2023-08-29T11:59:47.421Z,100269.88
2023-08-29T12:04:58.862Z,100260.94
2023-08-29T12:10:10.460Z,100270.47
2023-08-29T12:15:19.541Z,100267.47
2023-08-29T12:20:34.853Z,100253.56
2023-08-29T12:25:40.035Z,100252.47
2023-08-29T12:30:43.780Z,100239.13
2023-08-29T12:35:49.749Z,100237.03
2023-08-29T12:40:55.182Z,100237.63
2023-08-29T12:46:00.290Z,100247.31
2023-08-29T12:51:04.693Z,100237.84
2023-08-29T12:56:12.001Z,100222.25
2023-08-29T13:01:17.722Z,100213.19
2023-08-29T13:06:25.129Z,100219.50
2023-08-29T13:11:31.356Z,100211.94
2023-08-29T13:16:35.782Z,100202.09
2023-08-29T13:21:39.355Z,100216.50
2023-08-29T13:26:44.469Z,100198.31
2023-08-29T13:31:48.270Z,100201.44
2023-08-29T13:36:52.096Z,100189.78
2023-08-29T13:41:57.222Z,100198.28
2023-08-29T13:47:00.785Z,100197.31
2023-08-29T13:52:05.750Z,100180.97
2023-08-29T13:57:13.285Z,100175.44
2023-08-29T14:02:16.942Z,100176.00
2023-08-29T14:07:21.861Z,100177.06
2023-08-29T14:12:26.969Z,100181.56
2023-08-29T14:17:30.676Z,100180.16
2023-08-29T14:22:34.278Z,100190.09
2023-08-29T14:27:40.662Z,100192.44
2023-08-29T14:32:44.452Z,100199.94
2023-08-29T14:37:50.723Z,100198.59
2023-08-29T14:42:55.801Z,100197.41
2023-08-29T14:47:59.807Z,100201.53
2023-08-29T14:53:03.393Z,100205.50
2023-08-29T14:58:08.557Z,100205.97
2023-08-29T15:03:14.129Z,100207.19
2023-08-29T15:08:17.842Z,100205.84
2023-08-29T15:13:23.402Z,100192.84
2023-08-29T15:18:27.178Z,100193.53
2023-08-29T15:23:31.573Z,100190.47
2023-08-29T15:28:36.792Z,100175.66
2023-08-29T15:33:40.949Z,100170.22
2023-08-29T15:38:44.521Z,100151.69
2023-08-29T15:43:49.795Z,100146.78
2023-08-29T15:48:53.378Z,100158.69
2023-08-29T15:53:56.990Z,100173.44
2023-08-29T15:59:02.013Z,100151.19
2023-08-29T16:04:07.095Z,100145.13
2023-08-29T16:09:11.124Z,100144.44
2023-08-29T16:14:18.079Z,100142.34
2023-08-29T16:19:21.898Z,100155.41
2023-08-29T16:24:25.678Z,100167.41
2023-08-29T16:29:31.502Z,100166.22
2023-08-29T16:34:35.243Z,100165.81
2023-08-29T16:39:41.215Z,100157.91
2023-08-29T16:44:46.358Z,100164.22
2023-08-29T16:49:50.143Z,100160.94
2023-08-29T16:54:53.829Z,100155.16
2023-08-29T17:00:00.305Z,100155.38
2023-08-29T17:05:04.479Z,100164.72
2023-08-29T17:10:09.158Z,100172.63
2023-08-29T17:15:14.530Z,100167.00
2023-08-29T17:20:18.498Z,100171.97
2023-08-29T17:25:22.262Z,100173.44
2023-08-29T17:30:27.616Z,100177.16
2023-08-29T17:35:31.408Z,100180.81
2023-08-29T17:40:35.131Z,100175.09
2023-08-29T17:45:46.233Z,100164.31
2023-08-29T17:50:50.064Z,100171.78
2023-08-29T17:55:54.984Z,100175.47
2023-08-29T18:01:00.051Z,100183.41
2023-08-29T18:06:14.245Z,100186.16
2023-08-29T18:11:27.353Z,100186.22
2023-08-29T18:16:32.422Z,100187.31
2023-08-29T18:21:35.954Z,100192.09
2023-08-29T18:26:41.602Z,100189.97
2023-08-29T18:31:46.720Z,100189.09
2023-08-29T18:36:50.314Z,100182.66
2023-08-29T18:41:53.956Z,100185.72
2023-08-29T18:46:58.814Z,100188.06
2023-08-29T18:52:02.417Z,100192.16
2023-08-29T18:57:06.490Z,100190.13
2023-08-29T19:02:11.490Z,100197.91
2023-08-29T19:07:15.106Z,100197.69
2023-08-29T19:12:18.928Z,100198.31
2023-08-29T19:17:23.925Z,100199.25
2023-08-29T19:22:27.561Z,100188.53
2023-08-29T19:27:32.946Z,100188.53
2023-08-29T19:32:38.105Z,100196.47
2023-08-29T19:37:41.892Z,100197.69
2023-08-29T19:42:45.465Z,100197.94
2023-08-29T19:47:50.554Z,100192.47
2023-08-29T19:52:54.285Z,100194.25
2023-08-29T19:57:57.808Z,100186.63
2023-08-29T20:03:03.246Z,100190.09
2023-08-29T20:08:07.485Z,100187.88
2023-08-29T20:13:14.103Z,100189.25
2023-08-29T20:18:19.210Z,100187.34
2023-08-29T20:23:22.828Z,100196.88
2023-08-29T20:28:26.481Z,100195.09
2023-08-29T20:33:32.708Z,100200.66
2023-08-29T20:38:36.261Z,100193.75
2023-08-29T20:43:39.741Z,100206.63
2023-08-29T20:48:46.971Z,100208.03
2023-08-29T20:53:50.991Z,100212.94
2023-08-29T20:58:56.809Z,100199.41
2023-08-29T21:04:01.878Z,100204.53
2023-08-29T21:09:05.397Z,100196.91
2023-08-29T21:14:08.882Z,100189.69
2023-08-29T21:19:14.014Z,100190.53
2023-08-29T21:24:17.713Z,100180.53
2023-08-29T21:29:22.191Z,100185.50
2023-08-29T21:34:27.046Z,100181.72
2023-08-29T21:39:31.007Z,100174.84
2023-08-29T21:44:34.673Z,100173.53
2023-08-29T21:49:39.718Z,100166.66
2023-08-29T21:54:43.313Z,100165.50
2023-08-29T21:59:46.794Z,100160.31
2023-08-29T22:04:51.805Z,100160.50
2023-08-29T22:09:55.639Z,100157.28
2023-08-29T22:14:59.198Z,100157.44
2023-08-29T22:20:04.793Z,100153.16
2023-08-29T22:25:09.849Z,100146.41
2023-08-29T22:30:14.743Z,100136.06
2023-08-29T22:35:21.283Z,100136.19
2023-08-29T22:40:25.172Z,100131.19
2023-08-29T22:45:28.779Z,100139.06
2023-08-29T22:50:34.469Z,100131.78
2023-08-29T22:55:38.078Z,100124.00
2023-08-29T23:00:42.882Z,100136.03
2023-08-29T23:05:48.925Z,100129.63
2023-08-29T23:10:55.624Z,100134.06
2023-08-29T23:16:03.808Z,100127.91
2023-08-29T23:21:08.809Z,100128.34
2023-08-29T23:26:12.427Z,100128.44
2023-08-29T23:31:16.006Z,100131.47
2023-08-29T23:36:22.063Z,100120.69
2023-08-29T23:41:25.703Z,100127.94
2023-08-29T23:46:30.121Z,100127.38
2023-08-29T23:51:35.440Z,100118.22
2023-08-29T23:56:39.187Z,100109.25
